Time;durP1;ratioP1;P1;durP2;ratioP2;P2;SDS_P1;SDS_P2;PMS_P1;PMS_P2;Temp;Humidity;BMP_temperature;BMP_pressure;BME280_temperature;BME280_humidity;BME280_pressure;Samples;Min_cycle;Max_cycle;Signal;HPM_P1;HPM_P2
2022/05/20 00:00:06;;;;;;;25.13;19.70;;;16.40;1.00;;;;;;5033525;28;20449;-78
2022/05/20 00:02:36;;;;;;;22.63;20.23;;;16.40;1.00;;;;;;5034049;28;20414;-73
2022/05/20 00:05:02;;;;;;;27.50;21.33;;;16.30;1.00;;;;;;5033165;28;20433;-70
2022/05/20 00:07:27;;;;;;;27.67;19.93;;;16.40;1.00;;;;;;5031791;28;20803;-78
2022/05/20 00:09:53;;;;;;;24.20;20.43;;;16.30;1.00;;;;;;5033305;28;20429;-71
2022/05/20 00:12:20;;;;;;;28.10;21.13;;;16.30;1.00;;;;;;5033719;28;20164;-71
2022/05/20 00:14:46;;;;;;;22.63;20.20;;;16.30;1.00;;;;;;5032203;28;20429;-71
2022/05/20 00:17:12;;;;;;;28.10;21.27;;;16.40;1.00;;;;;;5032640;28;20426;-72
2022/05/20 00:19:37;;;;;;;26.27;20.00;;;16.40;1.00;;;;;;5033762;28;20191;-79
2022/05/20 00:22:05;;;;;;;24.20;19.63;;;16.40;1.00;;;;;;5033456;28;20171;-71
2022/05/20 00:25:45;;;;;;;30.67;21.53;;;16.50;1.00;;;;;;5033579;28;20211;-78
2022/05/20 00:27:22;;;;;;;22.23;19.97;;;16.40;1.00;;;;;;5024899;28;20782;-77
2022/05/20 00:30:11;;;;;;;26.90;20.03;;;16.40;1.00;;;;;;5033514;28;20410;-78
2022/05/20 00:32:38;;;;;;;25.27;20.33;;;16.40;1.00;;;;;;5029704;28;20218;-71
2022/05/20 00:35:04;;;;;;;29.10;20.30;;;16.30;1.00;;;;;;5032644;28;20430;-79
2022/05/20 00:37:30;;;;;;;27.77;20.00;;;16.40;1.00;;;;;;5032233;28;20981;-71
2022/05/20 00:39:56;;;;;;;28.87;20.40;;;16.30;1.00;;;;;;5032079;28;20442;-76
2022/05/20 00:42:21;;;;;;;24.20;19.10;;;16.40;1.00;;;;;;5033227;28;20171;-78
2022/05/20 00:44:48;;;;;;;34.63;22.20;;;16.30;1.00;;;;;;5032375;28;20164;-70
2022/05/20 00:47:14;;;;;;;27.90;22.00;;;16.30;1.00;;;;;;5031547;28;20175;-71
2022/05/20 00:49:48;;;;;;;33.10;24.60;;;16.30;1.00;;;;;;5033333;28;20422;-78
2022/05/20 00:52:17;;;;;;;32.50;22.83;;;16.30;1.00;;;;;;5032937;28;20440;-78
2022/05/20 00:54:47;;;;;;;37.37;23.20;;;16.30;1.00;;;;;;5033362;28;20410;-79
2022/05/20 00:57:16;;;;;;;31.97;22.83;;;16.30;1.00;;;;;;5032059;28;20400;-74
2022/05/20 00:59:49;;;;;;;33.87;23.83;;;16.30;1.00;;;;;;5033103;28;20516;-77
2022/05/20 01:02:19;;;;;;;34.03;23.97;;;16.30;1.00;;;;;;5032796;28;20878;-74
2022/05/20 01:04:45;;;;;;;34.27;22.57;;;16.20;1.00;;;;;;5032539;28;20775;-79
2022/05/20 01:07:12;;;;;;;29.67;23.40;;;16.30;1.00;;;;;;5031383;28;20748;-72
2022/05/20 01:09:39;;;;;;;37.43;25.03;;;16.20;1.00;;;;;;5031904;28;20813;-71
2022/05/20 01:12:05;;;;;;;34.73;25.83;;;16.20;1.00;;;;;;5032736;28;20890;-73
2022/05/20 01:14:31;;;;;;;31.07;20.77;;;16.20;1.00;;;;;;5033048;28;20398;-71
2022/05/20 01:16:57;;;;;;;35.77;20.97;;;16.20;1.00;;;;;;5030977;28;20931;-79
2022/05/20 01:19:39;;;;;;;23.80;16.60;;;16.20;1.00;;;;;;5032819;28;20437;-78
2022/05/20 01:22:08;;;;;;;22.47;14.00;;;16.10;1.00;;;;;;5032631;28;20172;-71
2022/05/20 01:24:34;;;;;;;22.70;14.80;;;15.90;1.00;;;;;;5032025;28;20424;-77
2022/05/20 01:26:59;;;;;;;20.53;14.13;;;15.90;1.00;;;;;;5030948;28;20422;-77
2022/05/20 01:29:26;;;;;;;23.37;13.50;;;15.80;1.00;;;;;;5036955;28;20183;-77
2022/05/20 01:31:51;;;;;;;20.73;13.37;;;15.50;1.00;;;;;;5036857;28;20255;-71
2022/05/20 01:34:17;;;;;;;17.87;12.60;;;15.50;1.00;;;;;;5036930;28;20426;-77
2022/05/20 01:36:43;;;;;;;19.43;11.87;;;15.40;1.00;;;;;;5034707;28;20174;-70
2022/05/20 01:39:09;;;;;;;18.03;13.37;;;15.30;1.00;;;;;;5036364;28;20479;-72
2022/05/20 01:41:45;;;;;;;20.57;12.10;;;15.30;1.00;;;;;;5036059;28;20191;-70
2022/05/20 01:44:10;;;;;;;21.60;12.80;;;15.30;1.00;;;;;;5036623;28;20170;-70
2022/05/20 01:46:42;;;;;;;17.80;11.60;;;15.30;1.00;;;;;;5034505;28;20422;-76
2022/05/20 01:49:29;;;;;;;15.70;11.77;;;15.10;1.00;;;;;;5036667;28;20199;-77
2022/05/20 01:52:01;;;;;;;21.37;13.57;;;15.20;1.00;;;;;;5036255;28;20428;-75
2022/05/20 01:54:37;;;;;;;20.40;11.67;;;15.10;1.00;;;;;;5036556;28;20444;-70
2022/05/20 01:57:28;;;;;;;20.43;14.73;;;15.00;1.00;;;;;;5033926;28;20530;-71
2022/05/20 02:00:04;;;;;;;26.77;14.10;;;14.90;1.00;;;;;;5035455;28;20437;-75
2022/05/20 02:02:39;;;;;;;21.10;12.60;;;14.90;1.00;;;;;;5036157;28;20417;-69
2022/05/20 02:05:22;;;;;;;16.63;11.50;;;14.70;1.00;;;;;;5035372;28;20372;-77
2022/05/20 02:07:55;;;;;;;19.60;11.60;;;14.60;1.00;;;;;;5035004;28;20412;-69
2022/05/20 02:10:36;;;;;;;20.83;11.00;;;14.50;1.00;;;;;;5036395;28;20950;-77
2022/05/20 02:13:07;;;;;;;19.63;10.10;;;14.50;1.00;;;;;;5035815;28;20500;-69
2022/05/20 02:15:44;;;;;;;25.60;11.93;;;14.50;1.00;;;;;;5034971;28;20500;-77
2022/05/20 02:18:16;;;;;;;18.27;11.83;;;14.40;1.00;;;;;;5034374;28;20448;-70
2022/05/20 02:20:56;;;;;;;25.60;15.27;;;14.40;1.00;;;;;;5034449;28;20528;-70
2022/05/20 02:23:28;;;;;;;28.40;18.70;;;14.40;1.00;;;;;;5036053;28;20387;-76
2022/05/20 02:25:57;;;;;;;28.93;16.43;;;14.30;1.00;;;;;;5034758;28;20417;-76
2022/05/20 02:28:43;;;;;;;21.07;15.03;;;14.10;1.00;;;;;;5035058;28;20468;-77
2022/05/20 02:31:16;;;;;;;18.07;13.60;;;14.10;1.00;;;;;;5035602;28;20475;-77
2022/05/20 02:33:42;;;;;;;16.57;11.87;;;14.00;1.00;;;;;;5035544;28;20412;-70
2022/05/20 02:36:22;;;;;;;13.63;10.67;;;13.80;1.00;;;;;;5034307;28;20905;-69
2022/05/20 02:38:47;;;;;;;14.47;11.40;;;13.80;1.00;;;;;;5034290;28;20516;-77
2022/05/20 02:41:13;;;;;;;15.00;13.00;;;13.90;1.00;;;;;;5035323;28;20520;-69
2022/05/20 02:43:38;;;;;;;13.20;11.17;;;13.80;1.00;;;;;;5035660;28;20516;-77
2022/05/20 02:46:05;;;;;;;14.93;11.47;;;13.70;1.00;;;;;;5034386;28;20175;-76
2022/05/20 02:48:31;;;;;;;16.37;10.73;;;13.70;1.00;;;;;;5034720;28;20537;-71
2022/05/20 02:50:58;;;;;;;11.70;10.00;;;13.70;1.00;;;;;;5035192;28;20459;-68
2022/05/20 02:53:23;;;;;;;17.13;10.77;;;13.60;1.00;;;;;;5034766;28;20658;-69
2022/05/20 02:55:49;;;;;;;13.63;9.80;;;13.50;1.00;;;;;;5034214;28;20430;-68
2022/05/20 03:06:40;;;;;;;12.60;9.10;;;13.40;1.00;;;;;;5033346;28;21000;-77
2022/05/20 03:09:07;;;;;;;11.00;9.20;;;13.40;1.00;;;;;;5034151;28;20442;-69
2022/05/20 03:11:34;;;;;;;11.00;9.90;;;13.40;1.00;;;;;;5034276;28;20700;-76
2022/05/20 03:14:01;;;;;;;11.63;9.97;;;13.40;1.00;;;;;;5034795;28;20866;-76
2022/05/20 03:16:27;;;;;;;10.47;9.07;;;13.50;1.00;;;;;;5033499;28;20412;-75
2022/05/20 03:18:53;;;;;;;16.00;9.87;;;13.50;1.00;;;;;;5034537;28;20418;-68
2022/05/20 03:21:18;;;;;;;10.20;8.37;;;13.50;1.00;;;;;;5034496;28;20969;-69
2022/05/20 03:23:44;;;;;;;11.13;9.50;;;13.60;1.00;;;;;;5034949;28;20174;-77
2022/05/20 03:26:09;;;;;;;12.20;8.67;;;13.50;1.00;;;;;;5033896;28;20255;-76
2022/05/20 03:28:35;;;;;;;10.87;8.73;;;13.40;1.00;;;;;;5033652;28;20202;-75
2022/05/20 03:31:07;;;;;;;10.00;9.00;;;13.50;1.00;;;;;;5034207;28;20254;-69
2022/05/20 03:33:34;;;;;;;9.10;8.07;;;13.40;1.00;;;;;;5034033;28;20199;-76
2022/05/20 03:36:00;;;;;;;8.00;7.30;;;13.40;1.00;;;;;;5033554;28;20426;-76
2022/05/20 03:38:26;;;;;;;7.97;7.17;;;13.40;1.00;;;;;;5031439;28;20445;-76
2022/05/20 03:40:51;;;;;;;9.00;7.60;;;13.50;99.90;;;;;;5034502;28;20199;-76
2022/05/20 03:43:17;;;;;;;5.97;5.50;;;13.50;99.90;;;;;;5033686;28;20438;-69
2022/05/20 03:45:43;;;;;;;6.63;5.90;;;13.50;99.90;;;;;;5033420;28;20905;-76
2022/05/20 03:48:09;;;;;;;8.00;6.73;;;13.50;99.90;;;;;;5033221;28;20193;-68
2022/05/20 03:50:36;;;;;;;6.10;5.50;;;13.40;99.90;;;;;;5032731;28;20632;-76
2022/05/20 03:53:02;;;;;;;6.30;5.80;;;13.40;99.90;;;;;;5034224;28;20425;-77
2022/05/20 03:55:28;;;;;;;7.97;5.47;;;13.50;99.90;;;;;;5032952;28;20397;-69
2022/05/20 03:57:54;;;;;;;5.90;5.43;;;13.60;99.90;;;;;;5033037;28;20920;-76
2022/05/20 04:00:20;;;;;;;5.23;4.80;;;13.60;99.90;;;;;;5033937;28;20435;-68
2022/05/20 04:02:46;;;;;;;5.43;4.90;;;13.60;99.90;;;;;;5033778;28;20428;-68
2022/05/20 04:05:12;;;;;;;5.97;5.20;;;13.60;99.90;;;;;;5033799;28;20456;-70
2022/05/20 04:07:38;;;;;;;7.70;6.70;;;13.60;99.90;;;;;;5030685;28;20199;-69
2022/05/20 04:10:06;;;;;;;5.97;5.50;;;13.70;99.90;;;;;;5033749;28;20198;-68
2022/05/20 04:12:42;;;;;;;6.70;5.77;;;13.70;99.90;;;;;;5033894;28;20972;-69
2022/05/20 04:15:13;;;;;;;6.10;5.50;;;13.70;99.90;;;;;;5033731;28;20407;-75
2022/05/20 04:17:40;;;;;;;5.63;5.20;;;13.70;99.90;;;;;;5031598;28;20525;-76
2022/05/20 04:20:07;;;;;;;5.80;5.23;;;13.70;99.90;;;;;;5033648;28;20508;-77
2022/05/20 04:22:35;;;;;;;6.70;6.10;;;13.70;99.90;;;;;;5033466;28;20453;-70
2022/05/20 04:25:02;;;;;;;6.03;5.53;;;13.80;99.90;;;;;;5032126;28;20429;-76
2022/05/20 04:27:28;;;;;;;5.30;4.83;;;13.90;99.90;;;;;;5031190;28;20423;-77
2022/05/20 04:29:55;;;;;;;6.30;4.80;;;13.90;99.90;;;;;;5033341;28;20950;-68
2022/05/20 04:32:21;;;;;;;7.10;4.87;;;13.80;99.90;;;;;;5033021;28;20196;-67
2022/05/20 04:34:47;;;;;;;5.57;5.10;;;13.80;99.90;;;;;;5032199;28;20428;-67
2022/05/20 04:37:14;;;;;;;6.47;5.37;;;13.90;99.90;;;;;;5032701;28;20222;-70
2022/05/20 04:39:39;;;;;;;5.80;5.30;;;13.90;99.90;;;;;;5033070;28;20560;-69
2022/05/20 04:47:38;;;;;;;5.20;4.80;;;14.00;99.90;;;;;;5032413;28;20499;-76
2022/05/20 04:50:06;;;;;;;5.07;4.67;;;14.10;99.90;;;;;;5033205;28;20441;-68
2022/05/20 04:52:32;;;;;;;4.80;4.30;;;14.10;99.90;;;;;;5033116;28;20186;-74
2022/05/20 04:54:57;;;;;;;6.33;5.00;;;14.10;99.90;;;;;;5032188;28;20811;-76
2022/05/20 04:57:27;;;;;;;5.10;4.70;;;14.10;99.90;;;;;;5031912;28;20515;-67
2022/05/20 05:00:01;;;;;;;8.93;4.53;;;14.10;99.90;;;;;;5032624;28;20184;-75
2022/05/20 05:02:27;;;;;;;4.63;4.23;;;14.10;99.90;;;;;;5032762;28;20425;-67
2022/05/20 05:04:53;;;;;;;5.47;3.83;;;14.10;99.90;;;;;;5032234;28;20968;-67
2022/05/20 05:07:19;;;;;;;3.93;3.63;;;14.10;99.90;;;;;;5031885;28;20503;-76
2022/05/20 05:09:45;;;;;;;4.00;3.80;;;14.10;99.90;;;;;;5032991;28;20424;-67
2022/05/20 05:12:12;;;;;;;3.67;3.40;;;14.10;99.90;;;;;;5031427;28;20385;-76
2022/05/20 05:14:41;;;;;;;3.93;3.30;;;14.10;99.90;;;;;;5031985;28;20436;-67
2022/05/20 05:17:08;;;;;;;3.23;3.03;;;14.10;99.90;;;;;;5047522;28;20380;-76
2022/05/20 05:19:38;;;;;;;3.47;3.17;;;14.00;99.90;;;;;;5032190;28;20393;-67
2022/05/20 05:22:07;;;;;;;3.50;3.30;;;14.00;99.90;;;;;;5032858;28;20746;-76
2022/05/20 05:24:35;;;;;;;3.57;3.27;;;14.00;99.90;;;;;;5024014;28;20623;-67
2022/05/20 05:27:00;;;;;;;4.87;3.77;;;14.00;99.90;;;;;;5032192;28;20868;-75
2022/05/20 05:29:26;;;;;;;3.53;3.23;;;14.00;99.90;;;;;;5032567;28;20521;-67
2022/05/20 05:31:52;;;;;;;4.43;3.53;;;14.00;99.90;;;;;;5032917;28;20198;-75
2022/05/20 05:34:18;;;;;;;3.67;3.37;;;14.10;99.90;;;;;;5030493;28;20521;-76
2022/05/20 05:36:44;;;;;;;3.80;3.50;;;14.20;99.90;;;;;;5031846;28;20400;-77
2022/05/20 05:39:29;;;;;;;3.20;2.90;;;14.30;99.90;;;;;;5031964;28;20421;-71
2022/05/20 05:41:57;;;;;;;3.57;3.27;;;14.40;99.90;;;;;;5032699;28;20234;-78
2022/05/20 05:44:23;;;;;;;2.97;2.77;;;14.40;99.90;;;;;;5031620;28;20430;-75
2022/05/20 05:46:48;;;;;;;2.70;2.50;;;14.50;99.90;;;;;;5031817;28;21189;-75
2022/05/20 05:49:14;;;;;;;3.60;3.10;;;14.50;99.90;;;;;;5031761;28;20250;-71
2022/05/20 05:51:40;;;;;;;3.03;2.80;;;14.50;99.90;;;;;;5045777;28;20225;-76
2022/05/20 05:54:06;;;;;;;3.73;2.93;;;14.40;99.90;;;;;;5031347;28;20217;-66
2022/05/20 05:56:31;;;;;;;3.30;2.53;;;14.50;99.90;;;;;;5030231;28;20434;-74
2022/05/20 05:58:57;;;;;;;2.87;2.67;;;14.50;99.90;;;;;;5032071;28;20196;-66
2022/05/20 06:01:23;;;;;;;5.57;2.73;;;14.70;99.90;;;;;;5031138;28;20196;-66
2022/05/20 06:03:49;;;;;;;2.67;2.47;;;14.70;99.90;;;;;;5032686;28;20218;-67
2022/05/20 06:06:15;;;;;;;3.10;2.30;;;14.70;99.90;;;;;;5031110;28;20434;-76
2022/05/20 06:08:40;;;;;;;3.40;2.90;;;14.80;99.90;;;;;;5031736;28;20191;-67
2022/05/20 06:11:06;;;;;;;4.27;2.93;;;14.60;99.90;;;;;;5032636;28;20675;-76
2022/05/20 06:13:32;;;;;;;2.43;2.23;;;14.60;99.90;;;;;;5032851;28;20686;-76
2022/05/20 06:15:58;;;;;;;2.47;2.27;;;14.70;99.90;;;;;;5034294;28;20430;-76
2022/05/20 06:18:25;;;;;;;2.70;2.50;;;14.80;99.90;;;;;;5034981;28;20684;-76
2022/05/20 06:20:51;;;;;;;2.00;1.90;;;14.80;99.90;;;;;;5035917;28;20532;-67
2022/05/20 06:23:17;;;;;;;2.57;2.27;;;14.80;99.90;;;;;;5035747;28;20472;-67
2022/05/20 06:25:43;;;;;;;2.50;2.30;;;14.80;99.90;;;;;;5034930;28;20194;-76
2022/05/20 06:28:13;;;;;;;3.23;2.33;;;14.80;99.90;;;;;;5033734;28;20417;-76
2022/05/20 06:30:40;;;;;;;2.90;2.70;;;14.80;99.90;;;;;;5035468;28;20268;-70
2022/05/20 06:33:06;;;;;;;2.77;2.57;;;14.90;99.90;;;;;;5035359;28;20809;-76
2022/05/20 06:41:02;;;;;;;3.00;2.57;;;15.10;99.90;;;;;;5035140;28;21015;-67
2022/05/20 06:43:28;;;;;;;2.13;2.03;;;15.10;99.90;;;;;;5035610;28;20758;-76
2022/05/20 06:45:56;;;;;;;2.63;2.53;;;15.10;99.90;;;;;;5034657;28;20430;-68
2022/05/20 06:48:23;;;;;;;5.47;2.60;;;15.10;99.90;;;;;;5034497;28;20427;-68
2022/05/20 06:50:49;;;;;;;2.10;1.90;;;15.10;99.90;;;;;;5035126;28;20449;-75
2022/05/20 06:53:15;;;;;;;3.73;2.20;;;15.20;99.90;;;;;;5035373;28;20438;-75
2022/05/20 06:55:41;;;;;;;2.87;2.50;;;15.20;99.90;;;;;;5033289;28;20194;-66
2022/05/20 06:58:08;;;;;;;3.00;2.70;;;15.20;99.90;;;;;;5034386;28;20199;-66
2022/05/20 07:00:34;;;;;;;3.70;2.07;;;15.20;99.40;;;;;;5035420;28;20661;-67
2022/05/20 07:03:00;;;;;;;3.03;2.83;;;15.10;97.60;;;;;;5035302;28;20377;-77
2022/05/20 07:05:27;;;;;;;3.00;2.80;;;15.00;84.40;;;;;;5033915;28;20430;-78
2022/05/20 07:07:53;;;;;;;3.80;2.87;;;15.00;81.40;;;;;;5033857;28;20830;-67
2022/05/20 07:10:20;;;;;;;3.00;2.80;;;15.00;84.40;;;;;;5035186;28;20406;-75
2022/05/20 07:12:46;;;;;;;3.00;2.80;;;14.90;65.00;;;;;;5035058;28;20910;-66
2022/05/20 07:15:12;;;;;;;3.37;2.90;;;14.80;57.50;;;;;;5034049;28;20426;-75
2022/05/20 07:17:38;;;;;;;3.80;3.07;;;14.80;66.30;;;;;;5034052;28;20406;-75
2022/05/20 07:20:05;;;;;;;3.17;2.97;;;14.90;73.90;;;;;;5033878;28;20278;-66
2022/05/20 07:22:31;;;;;;;2.20;2.10;;;14.90;58.60;;;;;;5034498;28;20418;-75
2022/05/20 07:24:57;;;;;;;3.30;3.10;;;15.00;63.80;;;;;;5033478;28;20434;-75
2022/05/20 07:27:22;;;;;;;3.37;3.07;;;15.10;62.80;;;;;;5031971;28;20253;-66
2022/05/20 07:29:48;;;;;;;5.17;4.17;;;15.10;56.90;;;;;;5034273;28;20160;-75
2022/05/20 07:32:16;;;;;;;4.03;3.73;;;14.90;34.10;;;;;;5034219;28;20505;-75
2022/05/20 07:34:42;;;;;;;5.00;3.33;;;14.80;37.00;;;;;;5031968;28;20549;-67
2022/05/20 07:37:08;;;;;;;3.03;2.83;;;14.70;25.80;;;;;;5032739;28;20401;-67
2022/05/20 07:39:34;;;;;;;3.13;2.93;;;14.60;27.90;;;;;;5032443;28;20282;-67
2022/05/20 07:42:00;;;;;;;3.40;3.13;;;14.70;36.90;;;;;;5033253;28;20203;-66
2022/05/20 07:44:26;;;;;;;3.67;3.40;;;14.60;28.80;;;;;;5033278;28;20428;-66
2022/05/20 07:46:52;;;;;;;3.50;3.30;;;14.60;36.90;;;;;;5033174;28;20221;-67
2022/05/20 07:49:18;;;;;;;3.27;3.07;;;14.50;26.00;;;;;;5031953;28;20955;-75
2022/05/20 07:51:46;;;;;;;4.10;2.57;;;14.50;36.70;;;;;;5030776;28;20184;-71
2022/05/20 07:54:19;;;;;;;3.20;3.00;;;14.60;24.60;;;;;;5033957;28;20411;-75
2022/05/20 07:56:51;;;;;;;3.97;3.60;;;14.60;11.80;;;;;;5032402;28;20438;-67
2022/05/20 07:59:29;;;;;;;3.23;3.03;;;14.60;5.10;;;;;;5022061;28;20432;-66
2022/05/20 08:01:56;;;;;;;5.53;3.43;;;14.60;1.00;;;;;;5031954;28;20451;-75
2022/05/20 08:07:11;;;;;;;2.60;2.40;;;14.60;1.00;;;;;;5032805;28;20908;-66
2022/05/20 08:09:37;;;;;;;3.27;2.97;;;14.70;1.00;;;;;;5015102;28;20417;-66
2022/05/20 08:12:04;;;;;;;3.40;3.20;;;14.80;1.00;;;;;;5032645;28;20881;-68
2022/05/20 08:14:29;;;;;;;9.13;3.37;;;14.90;1.00;;;;;;5032341;28;20977;-66
2022/05/20 08:17:00;;;;;;;3.03;2.83;;;14.90;1.00;;;;;;5030859;28;20421;-74
2022/05/20 08:19:27;;;;;;;4.00;2.90;;;14.90;1.00;;;;;;5014459;28;20665;-73
2022/05/20 08:21:52;;;;;;;4.40;4.00;;;14.80;1.00;;;;;;5032275;28;20466;-66
2022/05/20 08:24:19;;;;;;;3.57;3.37;;;14.80;1.00;;;;;;5033249;28;20756;-77
2022/05/20 08:26:46;;;;;;;4.23;3.20;;;14.80;1.00;;;;;;5032192;28;20192;-73
2022/05/20 08:29:15;;;;;;;3.30;3.00;;;14.80;1.00;;;;;;5032897;28;20430;-66
2022/05/20 08:31:42;;;;;;;3.47;3.27;;;15.00;1.00;;;;;;5032201;28;20791;-67
2022/05/20 08:34:08;;;;;;;2.90;2.70;;;15.20;1.00;;;;;;5033349;28;20403;-72
2022/05/20 08:36:35;;;;;;;3.83;3.27;;;15.30;1.00;;;;;;5031574;28;20410;-67
2022/05/20 08:39:05;;;;;;;3.60;3.30;;;15.60;1.00;;;;;;5032758;28;20939;-66
2022/05/20 08:41:44;;;;;;;4.30;3.80;;;15.80;1.00;;;;;;5032492;28;20461;-76
2022/05/20 08:44:20;;;;;;;3.57;3.20;;;16.00;1.00;;;;;;5028268;28;20426;-67
2022/05/20 08:46:47;;;;;;;4.00;3.60;;;16.10;1.00;;;;;;5018798;28;20407;-74
2022/05/20 08:49:19;;;;;;;3.70;3.40;;;16.20;1.00;;;;;;5014218;28;20442;-66
2022/05/20 08:51:50;;;;;;;3.67;3.23;;;16.00;1.00;;;;;;5027396;28;20462;-74
2022/05/20 08:54:16;;;;;;;3.57;3.37;;;16.10;1.00;;;;;;5018684;28;20427;-75
2022/05/20 08:56:42;;;;;;;4.00;3.70;;;16.10;1.00;;;;;;5032428;28;20414;-70
2022/05/20 08:59:13;;;;;;;4.00;3.70;;;16.00;1.00;;;;;;5032365;28;20457;-76
2022/05/20 09:01:42;;;;;;;3.40;3.20;;;16.00;1.00;;;;;;5032167;28;20462;-66
2022/05/20 09:04:11;;;;;;;3.53;3.23;;;16.10;1.00;;;;;;5032288;28;20422;-67
2022/05/20 09:07:00;;;;;;;3.57;3.30;;;16.20;1.00;;;;;;5032405;28;20406;-74
2022/05/20 09:09:47;;;;;;;4.43;3.40;;;16.20;1.00;;;;;;5031865;28;20445;-73
2022/05/20 09:12:36;;;;;;;3.53;3.23;;;16.30;1.00;;;;;;5031973;28;20962;-75
2022/05/20 09:18:00;;;;;;;3.17;2.97;;;16.50;1.00;;;;;;5032170;28;20521;-75
2022/05/20 09:20:26;;;;;;;4.13;3.67;;;16.50;99.90;;;;;;5031606;28;20461;-66
2022/05/20 09:22:58;;;;;;;3.20;2.90;;;16.40;99.90;;;;;;5032401;28;20421;-75
2022/05/20 09:25:30;;;;;;;3.30;3.10;;;16.40;99.90;;;;;;5031764;28;20442;-68
2022/05/20 09:28:32;;;;;;;3.80;3.50;;;16.40;99.90;;;;;;5031089;28;20452;-67
2022/05/20 09:31:21;;;;;;;3.23;3.00;;;16.50;99.90;;;;;;5032265;28;20396;-66
2022/05/20 09:34:10;;;;;;;2.80;2.60;;;16.70;99.90;;;;;;5032882;28;20533;-75
2022/05/20 09:36:45;;;;;;;3.23;3.03;;;16.90;99.90;;;;;;5031535;28;20426;-65
2022/05/20 09:39:21;;;;;;;3.93;3.57;;;16.80;99.90;;;;;;5032905;28;20918;-66
2022/05/20 09:41:50;;;;;;;3.60;3.30;;;16.60;99.90;;;;;;5013037;28;20537;-66
2022/05/20 09:44:19;;;;;;;9.23;3.93;;;16.80;99.90;;;;;;5012820;28;20485;-67
2022/05/20 09:47:01;;;;;;;5.53;3.10;;;16.70;99.90;;;;;;5031198;28;20559;-68
2022/05/20 09:49:52;;;;;;;5.13;2.80;;;17.30;99.90;;;;;;5014869;28;20430;-74
2022/05/20 09:52:25;;;;;;;2.70;2.30;;;18.20;99.90;;;;;;5022180;28;20962;-66
2022/05/20 09:55:00;;;;;;;2.73;2.53;;;19.10;99.90;;;;;;5035507;28;20430;-66
2022/05/20 09:57:42;;;;;;;3.57;3.37;;;19.80;99.90;;;;;;5035302;28;20412;-73
2022/05/20 10:00:40;;;;;;;3.20;2.90;;;19.50;99.90;;;;;;5036288;28;20446;-70
2022/05/20 10:10:32;;;;;;;2.67;2.47;;;18.90;99.90;;;;;;5036140;28;20425;-66
2022/05/20 10:12:59;;;;;;;4.13;3.13;;;18.80;99.90;;;;;;5035767;28;20484;-73
2022/05/20 10:15:32;;;;;;;3.40;3.10;;;18.90;99.90;;;;;;5035170;28;20484;-67
2022/05/20 10:18:13;;;;;;;3.70;3.40;;;19.10;99.90;;;;;;5035021;28;20448;-66
2022/05/20 10:20:44;;;;;;;3.63;3.40;;;19.50;99.90;;;;;;5035560;28;20563;-65
2022/05/20 10:23:28;;;;;;;3.73;3.17;;;19.70;99.90;;;;;;5033346;28;20419;-74
2022/05/20 10:26:19;;;;;;;4.87;3.00;;;20.40;99.90;;;;;;5032211;28;20438;-75
2022/05/20 10:35:00;;;;;;;3.40;3.10;;;20.40;99.90;;;;;;5033191;28;20471;-66
2022/05/20 10:37:58;;;;;;;3.13;2.93;;;20.90;99.90;;;;;;5032741;28;20853;-67
2022/05/20 10:40:29;;;;;;;3.27;2.97;;;21.80;99.90;;;;;;5027771;28;20461;-74
2022/05/20 10:43:13;;;;;;;2.77;2.60;;;22.40;99.90;;;;;;5033197;28;20402;-67
2022/05/20 10:48:58;;;;;;;7.73;2.80;;;22.10;99.90;;;;;;5031453;28;20504;-70
2022/05/20 10:51:45;;;;;;;4.07;2.60;;;22.20;99.90;;;;;;5034313;28;20499;-72
2022/05/20 10:54:36;;;;;;;3.77;3.47;;;21.80;99.90;;;;;;5033945;28;20430;-65
2022/05/20 10:57:27;;;;;;;2.53;2.40;;;21.70;99.90;;;;;;5025920;28;20430;-74
2022/05/20 10:59:55;;;;;;;3.43;3.00;;;22.50;99.90;;;;;;5043601;28;20479;-66
2022/05/20 11:02:58;;;;;;;2.70;2.50;;;23.10;99.90;;;;;;5033513;28;20496;-74
2022/05/20 11:06:02;;;;;;;4.23;2.87;;;23.70;99.90;;;;;;5034062;28;20520;-70
2022/05/20 11:08:31;;;;;;;3.60;3.30;;;24.00;99.90;;;;;;5030059;28;20519;-66
2022/05/20 11:11:08;;;;;;;2.90;2.70;;;23.90;99.90;;;;;;5034190;28;20429;-66
2022/05/20 11:14:00;;;;;;;2.93;2.73;;;23.60;99.90;;;;;;5032956;28;20425;-74
2022/05/20 11:16:29;;;;;;;2.30;2.13;;;23.10;99.90;;;;;;5033017;28;20441;-74
2022/05/20 11:19:03;;;;;;;3.37;2.73;;;23.00;99.90;;;;;;5033469;28;20442;-66
2022/05/20 11:21:52;;;;;;;2.70;2.50;;;23.20;99.50;;;;;;5033865;28;21030;-74
2022/05/20 11:24:18;;;;;;;3.03;2.83;;;23.50;99.90;;;;;;5023734;28;20434;-74
2022/05/20 11:26:54;;;;;;;6.20;3.43;;;23.60;97.50;;;;;;5031337;28;20533;-73
2022/05/20 11:29:20;;;;;;;3.00;2.80;;;23.50;98.10;;;;;;5034753;28;20441;-74
2022/05/20 11:31:52;;;;;;;3.20;2.90;;;23.20;96.90;;;;;;5031815;28;20930;-74
2022/05/20 11:34:25;;;;;;;3.13;2.60;;;22.90;96.80;;;;;;5028825;28;20241;-71
2022/05/20 11:37:03;;;;;;;2.60;2.40;;;22.70;96.70;;;;;;5032213;28;20434;-66
2022/05/20 11:40:22;;;;;;;2.70;2.50;;;22.80;96.70;;;;;;5033823;28;20476;-66
2022/05/20 11:43:07;;;;;;;3.30;3.10;;;23.10;96.80;;;;;;4990832;28;20467;-74
2022/05/20 11:46:00;;;;;;;2.90;2.50;;;23.90;96.90;;;;;;4989965;28;20512;-65
2022/05/20 11:48:25;;;;;;;2.90;2.70;;;24.10;92.40;;;;;;5017756;28;20451;-65
2022/05/20 11:51:21;;;;;;;3.47;3.27;;;24.10;83.90;;;;;;5034219;28;20417;-67
2022/05/20 11:53:54;;;;;;;3.27;2.90;;;23.90;79.20;;;;;;5032157;28;20266;-72
2022/05/20 11:56:44;;;;;;;6.30;2.60;;;23.30;75.90;;;;;;5034130;28;20414;-73
2022/05/20 11:59:15;;;;;;;3.17;2.97;;;23.40;82.10;;;;;;5033180;28;20947;-72
2022/05/20 12:01:44;;;;;;;3.90;3.20;;;23.40;80.20;;;;;;5033907;28;20954;-64
2022/05/20 12:04:12;;;;;;;3.57;3.37;;;23.40;77.60;;;;;;5030410;28;20479;-72
2022/05/20 12:06:57;;;;;;;3.30;3.10;;;23.20;83.90;;;;;;5032022;28;20425;-64
2022/05/20 12:09:30;;;;;;;3.20;2.90;;;23.40;89.00;;;;;;5031084;28;20481;-66
2022/05/20 12:12:24;;;;;;;3.10;2.90;;;23.60;86.50;;;;;;5032935;28;20406;-65
2022/05/20 12:15:31;;;;;;;4.73;2.50;;;23.50;91.90;;;;;;5033230;28;20499;-64
2022/05/20 12:18:17;;;;;;;4.33;3.07;;;23.80;90.10;;;;;;4991784;28;20435;-64
2022/05/20 12:26:24;;;;;;;2.80;2.60;;;24.20;64.40;;;;;;5034125;28;20465;-73
2022/05/20 12:28:50;;;;;;;3.90;2.67;;;24.40;62.00;;;;;;5032725;28;20940;-71
2022/05/20 12:31:38;;;;;;;2.83;2.63;;;24.30;60.60;;;;;;5033835;28;20434;-66
2022/05/20 12:34:10;;;;;;;3.77;3.30;;;23.90;58.00;;;;;;5033257;28;20430;-72
2022/05/20 12:36:41;;;;;;;2.73;2.10;;;24.10;58.70;;;;;;5033149;28;20403;-64
2022/05/20 12:39:09;;;;;;;5.00;3.40;;;24.50;69.40;;;;;;5033781;28;20471;-72
2022/05/20 12:41:43;;;;;;;3.73;3.43;;;24.80;66.80;;;;;;5033824;28;21006;-72
2022/05/20 12:44:18;;;;;;;3.30;2.97;;;24.60;64.40;;;;;;5032839;28;20459;-73
2022/05/20 12:47:04;;;;;;;3.20;3.00;;;24.50;54.10;;;;;;5031960;28;20487;-71
2022/05/20 12:49:42;;;;;;;6.87;3.40;;;24.40;46.90;;;;;;5033037;28;20827;-73
2022/05/20 12:52:16;;;;;;;3.27;2.97;;;23.50;32.00;;;;;;5033805;28;20410;-72
2022/05/20 12:54:46;;;;;;;4.00;3.37;;;22.90;40.10;;;;;;5031576;28;20768;-71
2022/05/20 12:57:18;;;;;;;3.87;2.70;;;22.90;45.00;;;;;;5032765;28;20406;-65
2022/05/20 12:59:54;;;;;;;3.63;2.77;;;23.30;59.00;;;;;;5033497;28;20926;-72
2022/05/20 13:02:21;;;;;;;4.00;3.00;;;23.50;46.10;;;;;;5033681;28;20410;-72
2022/05/20 13:05:00;;;;;;;3.23;2.50;;;23.50;50.50;;;;;;5031792;28;20426;-69
2022/05/20 13:07:26;;;;;;;3.03;2.73;;;23.40;46.30;;;;;;5032646;28;20397;-72
2022/05/20 13:09:52;;;;;;;3.43;3.13;;;23.70;46.00;;;;;;5033406;28;20477;-73
2022/05/20 13:12:22;;;;;;;3.70;3.40;;;24.10;45.70;;;;;;5033489;28;20191;-64
2022/05/20 13:15:02;;;;;;;3.43;3.10;;;24.40;43.90;;;;;;5032497;28;20168;-65
2022/05/20 13:17:30;;;;;;;3.23;2.73;;;24.60;36.20;;;;;;5031453;28;20456;-73
2022/05/20 13:19:56;;;;;;;2.57;2.37;;;24.70;31.50;;;;;;5033150;28;20399;-73
2022/05/20 13:22:27;;;;;;;3.57;3.27;;;24.60;39.30;;;;;;5034602;28;20402;-65
2022/05/20 13:24:57;;;;;;;3.40;3.10;;;24.60;36.30;;;;;;5038499;28;20957;-64
2022/05/20 13:27:24;;;;;;;4.07;3.50;;;24.40;27.80;;;;;;5038943;28;20405;-64
2022/05/20 13:29:54;;;;;;;4.60;3.03;;;24.10;25.10;;;;;;5038555;28;20406;-72
2022/05/20 13:32:31;;;;;;;3.53;3.33;;;24.10;23.00;;;;;;5039811;28;20406;-72
2022/05/20 13:34:59;;;;;;;3.10;2.90;;;23.90;26.90;;;;;;5038891;28;20433;-72
2022/05/20 13:37:33;;;;;;;3.53;3.23;;;24.20;25.50;;;;;;5054226;28;20414;-72
2022/05/20 13:40:13;;;;;;;3.57;3.27;;;24.60;23.10;;;;;;5039633;28;20398;-64
2022/05/20 13:42:44;;;;;;;3.50;3.27;;;24.80;24.40;;;;;;5039086;28;20409;-65
2022/05/20 13:45:12;;;;;;;6.60;5.13;;;25.20;24.40;;;;;;5038701;28;20421;-73
2022/05/20 13:50:23;;;;;;;3.53;3.33;;;25.80;26.50;;;;;;5039791;28;20850;-64
2022/05/20 13:52:49;;;;;;;2.97;2.77;;;26.20;24.60;;;;;;5039761;28;20478;-64
2022/05/20 13:55:17;;;;;;;3.50;2.97;;;26.80;24.70;;;;;;5038769;28;20429;-64